Time;durP1;ratioP1;P1;durP2;ratioP2;P2;SDS_P1;SDS_P2;PMS_P1;PMS_P2;Temp;Humidity;BMP_temperature;BMP_pressure;BME280_temperature;BME280_humidity;BME280_pressure;Samples;Min_cycle;Max_cycle;Signal;HPM_P1;HPM_P2
2024/01/13 00:00:49;;;;;;;7.15;1.90;;;;;;;1.68;100.00;102741.19;5047703;28;20052;-72
2024/01/13 00:03:35;;;;;;;6.53;1.67;;;;;;;1.69;100.00;102737.72;5044576;28;20044;-72
2024/01/13 00:06:21;;;;;;;3.80;1.60;;;;;;;1.70;100.00;102734.25;5045635;28;20056;-72
2024/01/13 00:09:07;;;;;;;6.93;1.90;;;;;;;1.72;100.00;102734.31;5040780;28;20041;-73
2024/01/13 00:11:53;;;;;;;2.85;1.55;;;;;;;1.72;100.00;102731.69;5037081;28;20565;-72
2024/01/13 00:14:38;;;;;;;5.90;1.65;;;;;;;1.72;100.00;102737.81;5048089;28;20072;-72
2024/01/13 00:17:24;;;;;;;3.45;2.17;;;;;;;1.70;100.00;102729.03;5045658;28;20056;-72
2024/01/13 00:20:10;;;;;;;5.20;1.77;;;;;;;1.70;100.00;102717.72;5045795;28;20131;-72
2024/01/13 00:22:56;;;;;;;4.88;1.90;;;;;;;1.70;100.00;102718.59;5018855;28;20053;-72
2024/01/13 00:25:41;;;;;;;3.92;1.92;;;;;;;1.70;100.00;102710.75;5045182;28;20045;-73
2024/01/13 00:28:33;;;;;;;6.65;1.95;;;;;;;1.71;100.00;102702.09;5046094;28;21543;-72
2024/01/13 00:31:19;;;;;;;6.97;2.10;;;;;;;1.72;100.00;102706.47;5032791;28;20495;-72
2024/01/13 00:34:05;;;;;;;8.63;2.28;;;;;;;1.74;100.00;102709.13;5046014;28;20049;-72
2024/01/13 00:36:50;;;;;;;5.68;2.10;;;;;;;1.73;100.00;102703.00;5045189;28;20099;-72
2024/01/13 00:39:36;;;;;;;6.68;2.17;;;;;;;1.72;100.00;102701.25;5047242;28;20411;-72
2024/01/13 00:42:22;;;;;;;7.70;2.17;;;;;;;1.71;100.00;102699.50;5035419;28;20045;-72
2024/01/13 00:45:08;;;;;;;6.15;2.58;;;;;;;1.72;100.00;102696.03;5047972;28;20104;-72
2024/01/13 00:47:54;;;;;;;7.05;2.40;;;;;;;1.74;100.00;102688.22;5036777;28;20037;-73
2024/01/13 00:50:39;;;;;;;6.97;2.40;;;;;;;1.76;100.00;102692.63;5034949;28;20491;-72
2024/01/13 00:53:25;;;;;;;3.67;2.42;;;;;;;1.77;100.00;102688.28;5045337;28;20063;-73
2024/01/13 00:56:11;;;;;;;5.75;2.80;;;;;;;1.77;100.00;102688.28;5046371;28;20048;-72
2024/01/13 00:58:56;;;;;;;2.85;2.10;;;;;;;1.78;100.00;102683.97;5033904;28;20558;-73
2024/01/13 01:01:42;;;;;;;8.02;2.13;;;;;;;1.76;100.00;102676.94;5045592;28;20053;-73
2024/01/13 01:04:28;;;;;;;5.65;2.30;;;;;;;1.76;100.00;102670.84;5013938;28;20245;-73
2024/01/13 01:07:14;;;;;;;5.90;2.50;;;;;;;1.74;100.00;102665.59;5046742;28;20530;-73
2024/01/13 01:10:00;;;;;;;4.32;2.05;;;;;;;1.75;100.00;102663.88;5047558;28;20487;-73
2024/01/13 01:12:46;;;;;;;7.20;2.20;;;;;;;1.73;100.00;102665.56;5033069;28;20511;-73
2024/01/13 01:15:31;;;;;;;7.95;2.22;;;;;;;1.73;100.00;102663.84;5044148;28;20056;-73
2024/01/13 01:18:17;;;;;;;5.32;2.00;;;;;;;1.72;100.00;102669.91;5046151;28;20043;-72
2024/01/13 01:21:03;;;;;;;4.45;2.35;;;;;;;1.72;100.00;102662.06;5044302;28;20479;-73
2024/01/13 01:23:49;;;;;;;9.80;2.60;;;;;;;1.72;100.00;102656.84;5047560;28;20060;-72
2024/01/13 01:26:35;;;;;;;5.88;2.40;;;;;;;1.71;100.00;102656.81;5046091;28;20185;-73
2024/01/13 01:29:20;;;;;;;5.35;2.30;;;;;;;1.72;100.00;102658.56;5032089;28;20059;-72
2024/01/13 01:32:06;;;;;;;3.83;2.22;;;;;;;1.71;100.00;102642.03;5047933;28;20087;-72
2024/01/13 01:34:52;;;;;;;4.10;2.20;;;;;;;1.72;100.00;102641.19;5045168;28;20063;-72
2024/01/13 01:37:38;;;;;;;5.28;2.17;;;;;;;1.72;100.00;102646.41;5022440;28;20495;-73
2024/01/13 01:40:25;;;;;;;8.70;2.22;;;;;;;1.70;100.00;102632.41;5046482;28;20995;-72
2024/01/13 01:43:10;;;;;;;5.85;2.10;;;;;;;1.69;100.00;102643.72;5033840;28;20044;-72
2024/01/13 01:45:58;;;;;;;5.78;2.20;;;;;;;1.68;100.00;102628.91;5047870;28;20143;-72
2024/01/13 01:48:45;;;;;;;6.03;2.38;;;;;;;1.68;100.00;102613.22;5030045;28;20041;-72
2024/01/13 01:51:31;;;;;;;6.55;2.40;;;;;;;1.67;100.00;102614.09;5031019;28;20059;-72
2024/01/13 01:54:17;;;;;;;6.82;2.45;;;;;;;1.67;100.00;102610.59;5030331;28;20040;-72
2024/01/13 01:57:03;;;;;;;5.13;2.45;;;;;;;1.68;100.00;102599.31;5045454;28;20159;-72
2024/01/13 01:59:50;;;;;;;6.78;2.55;;;;;;;1.68;100.00;102596.69;5034186;28;20041;-72
2024/01/13 02:02:35;;;;;;;8.27;2.50;;;;;;;1.67;100.00;102589.69;5022191;28;20083;-72
2024/01/13 02:05:21;;;;;;;5.47;2.28;;;;;;;1.65;100.00;102589.69;5035430;28;20049;-72
2024/01/13 02:08:07;;;;;;;9.52;2.85;;;;;;;1.63;100.00;102578.31;5044250;28;20129;-72
2024/01/13 02:10:53;;;;;;;7.15;2.83;;;;;;;1.61;100.00;102567.84;5046626;28;20048;-72
2024/01/13 02:13:39;;;;;;;6.63;2.45;;;;;;;1.61;100.00;102560.03;5047758;28;20158;-72
2024/01/13 02:16:25;;;;;;;7.00;2.67;;;;;;;1.61;100.00;102551.28;5049312;28;20615;-72
2024/01/13 02:19:11;;;;;;;5.03;2.28;;;;;;;1.60;100.00;102552.16;5037251;28;20603;-72
2024/01/13 02:21:57;;;;;;;6.60;2.10;;;;;;;1.59;100.00;102548.66;5051401;28;20050;-72
2024/01/13 02:24:42;;;;;;;4.72;1.90;;;;;;;1.59;100.00;102553.00;5050060;28;20040;-72
2024/01/13 02:27:28;;;;;;;6.65;2.08;;;;;;;1.59;100.00;102534.72;5051213;28;20063;-73
2024/01/13 02:30:14;;;;;;;4.60;1.90;;;;;;;1.61;100.00;102540.84;5051309;28;20051;-73
2024/01/13 02:32:59;;;;;;;7.32;2.00;;;;;;;1.61;100.00;102541.75;5050476;28;20178;-73
2024/01/13 02:35:45;;;;;;;8.02;1.75;;;;;;;1.61;100.00;102531.28;5038663;28;20048;-73
2024/01/13 02:38:31;;;;;;;4.78;1.90;;;;;;;1.61;100.00;102527.78;5032877;28;20044;-73
2024/01/13 02:41:17;;;;;;;5.97;1.92;;;;;;;1.61;100.00;102514.75;5049718;28;20063;-73
2024/01/13 02:44:02;;;;;;;4.90;1.60;;;;;;;1.60;100.00;102512.97;5038542;28;20123;-73
2024/01/13 02:46:48;;;;;;;5.05;1.58;;;;;;;1.63;100.00;102507.81;5049574;28;20063;-73
2024/01/13 02:49:34;;;;;;;7.05;1.67;;;;;;;1.63;100.00;102510.41;5051651;28;20113;-73
2024/01/13 02:52:20;;;;;;;7.85;1.88;;;;;;;1.64;100.00;102506.97;5050363;28;20542;-73
2024/01/13 02:55:08;;;;;;;3.03;1.73;;;;;;;1.66;100.00;102504.38;5048970;28;20892;-73
2024/01/13 02:57:54;;;;;;;4.15;1.60;;;;;;;1.67;100.00;102507.03;5050728;28;20094;-73
2024/01/13 03:00:39;;;;;;;4.60;1.73;;;;;;;1.68;100.00;102502.69;5047185;28;20064;-73
2024/01/13 03:03:25;;;;;;;6.22;2.22;;;;;;;1.67;100.00;102498.28;5037572;28;20093;-72
2024/01/13 03:06:11;;;;;;;4.32;1.83;;;;;;;1.68;100.00;102479.19;5045869;28;20142;-73
2024/01/13 03:08:57;;;;;;;3.17;1.95;;;;;;;1.66;100.00;102481.75;5047862;28;20040;-72
2024/01/13 03:11:42;;;;;;;3.78;2.00;;;;;;;1.66;100.00;102486.09;5035817;28;20130;-72
2024/01/13 03:14:30;;;;;;;3.92;1.83;;;;;;;1.65;100.00;102472.19;5047837;28;20067;-72
2024/01/13 03:17:15;;;;;;;4.60;2.00;;;;;;;1.65;100.00;102480.00;5030106;28;20065;-72
2024/01/13 03:20:01;;;;;;;5.50;2.45;;;;;;;1.65;100.00;102482.63;5048899;28;20059;-73
2024/01/13 03:22:47;;;;;;;11.57;2.40;;;;;;;1.65;100.00;102485.22;5035225;28;20040;-73
2024/01/13 03:25:33;;;;;;;3.13;1.75;;;;;;;1.66;100.00;102480.88;5049019;28;20040;-73
2024/01/13 03:28:19;;;;;;;8.27;1.92;;;;;;;1.65;100.00;102485.22;5049152;28;20068;-73
2024/01/13 03:31:04;;;;;;;7.13;2.05;;;;;;;1.65;100.00;102477.41;5046393;28;20828;-73
2024/01/13 03:33:50;;;;;;;7.35;2.00;;;;;;;1.63;100.00;102471.25;5049174;28;20041;-73
2024/01/13 03:36:36;;;;;;;6.32;2.00;;;;;;;1.64;100.00;102470.41;5047298;28;20075;-72
2024/01/13 03:39:21;;;;;;;3.50;2.00;;;;;;;1.65;100.00;102480.00;5047203;28;21284;-72
2024/01/13 03:42:07;;;;;;;6.18;2.10;;;;;;;1.66;100.00;102468.72;5045541;28;20044;-73
2024/01/13 03:44:54;;;;;;;4.82;1.75;;;;;;;1.65;100.00;102472.19;5047177;28;20044;-73
2024/01/13 03:47:40;;;;;;;3.90;1.65;;;;;;;1.66;100.00;102466.09;5047023;28;20044;-72
2024/01/13 03:50:26;;;;;;;6.18;2.00;;;;;;;1.68;100.00;102466.13;5047866;28;20052;-73
2024/01/13 03:53:12;;;;;;;4.93;1.63;;;;;;;1.68;100.00;102476.56;5037019;28;20123;-73
2024/01/13 03:55:58;;;;;;;5.80;1.98;;;;;;;1.69;100.00;102467.88;5047011;28;20048;-73
2024/01/13 03:58:44;;;;;;;5.68;2.05;;;;;;;1.70;100.00;102467.03;5047200;28;20080;-73
2024/01/13 04:01:29;;;;;;;4.53;1.90;;;;;;;1.71;100.00;102459.22;5049818;28;20500;-73
2024/01/13 04:04:15;;;;;;;5.95;1.63;;;;;;;1.71;100.00;102459.22;5046853;28;21992;-73
2024/01/13 04:07:01;;;;;;;9.32;1.60;;;;;;;1.72;100.00;102449.66;5046480;28;20044;-72
2024/01/13 04:09:46;;;;;;;4.53;1.55;;;;;;;1.71;100.00;102451.41;5046760;28;20072;-72
2024/01/13 04:12:32;;;;;;;2.95;2.08;;;;;;;1.71;100.00;102446.16;5032748;28;20052;-73
2024/01/13 04:15:18;;;;;;;5.38;1.70;;;;;;;1.71;100.00;102440.94;5039054;28;20115;-73
2024/01/13 04:18:04;;;;;;;4.38;1.70;;;;;;;1.72;100.00;102420.91;5038035;28;20052;-72
2024/01/13 04:20:49;;;;;;;4.43;1.30;;;;;;;1.72;100.00;102413.09;5047305;28;20036;-73
2024/01/13 04:23:35;;;;;;;2.10;1.23;;;;;;;1.72;100.00;102408.75;5036084;28;20040;-73
2024/01/13 04:26:21;;;;;;;2.75;1.50;;;;;;;1.72;100.00;102398.31;5047186;28;20110;-72
2024/01/13 04:29:07;;;;;;;2.75;1.42;;;;;;;1.72;100.00;102390.47;5046831;28;20044;-72
2024/01/13 04:31:52;;;;;;;4.10;1.63;;;;;;;1.73;100.00;102397.44;5047534;28;20079;-73
2024/01/13 04:34:38;;;;;;;3.95;1.50;;;;;;;1.72;100.00;102387.88;5034705;28;20044;-72
2024/01/13 04:37:24;;;;;;;1.38;1.10;;;;;;;1.68;100.00;102386.03;5047071;28;20127;-73
2024/01/13 04:40:10;;;;;;;1.83;1.20;;;;;;;1.65;100.00;102388.63;5047327;28;20699;-73
2024/01/13 04:42:55;;;;;;;1.92;1.35;;;;;;;1.65;100.00;102392.94;5045409;28;20119;-72
2024/01/13 04:45:41;;;;;;;2.33;1.10;;;;;;;1.63;100.00;102403.34;5047438;28;20573;-73
2024/01/13 04:48:27;;;;;;;4.03;1.38;;;;;;;1.59;100.00;102405.03;5046685;28;20114;-72
2024/01/13 04:51:13;;;;;;;2.22;1.10;;;;;;;1.56;100.00;102412.84;5046432;28;20068;-72
2024/01/13 04:53:58;;;;;;;2.97;1.27;;;;;;;1.54;100.00;102413.66;5045357;28;20123;-72
2024/01/13 04:56:45;;;;;;;1.38;1.20;;;;;;;1.53;100.00;102417.97;5046417;28;20040;-73
2024/01/13 04:59:30;;;;;;;5.15;1.23;;;;;;;1.51;100.00;102424.06;5046440;28;20055;-72
2024/01/13 05:02:16;;;;;;;2.33;1.00;;;;;;;1.48;100.00;102412.69;5031908;28;20045;-73
2024/01/13 05:05:02;;;;;;;2.15;0.80;;;;;;;1.46;100.00;102401.34;5045631;28;20039;-73
2024/01/13 05:07:47;;;;;;;1.50;1.00;;;;;;;1.46;100.00;102385.69;5044937;28;20241;-73
2024/01/13 05:10:33;;;;;;;1.52;0.80;;;;;;;1.47;100.00;102383.97;5045053;28;20485;-73
2024/01/13 05:13:19;;;;;;;2.08;0.80;;;;;;;1.50;100.00;102381.41;5035098;28;20473;-72
2024/01/13 05:16:05;;;;;;;0.80;0.70;;;;;;;1.51;100.00;102356.19;5046442;28;20123;-73
2024/01/13 05:18:51;;;;;;;1.42;1.08;;;;;;;1.54;100.00;102353.59;5044951;28;20060;-73
2024/01/13 05:21:36;;;;;;;2.92;0.77;;;;;;;1.58;100.00;102339.75;5033144;28;20059;-73
2024/01/13 05:24:22;;;;;;;0.70;0.70;;;;;;;1.60;100.00;102307.59;5047220;28;20506;-73
2024/01/13 05:27:08;;;;;;;2.17;0.90;;;;;;;1.58;100.00;102311.91;5045024;28;20040;-73
2024/01/13 05:29:53;;;;;;;3.10;0.90;;;;;;;1.58;100.00;102326.72;5033630;28;20128;-72
2024/01/13 05:32:42;;;;;;;1.20;1.00;;;;;;;1.59;100.00;102312.78;5035283;28;20040;-73
2024/01/13 05:35:28;;;;;;;0.95;0.80;;;;;;;1.62;100.00;102310.22;5046474;28;20087;-73
2024/01/13 05:38:13;;;;;;;4.57;1.33;;;;;;;1.63;100.00;102302.41;5045410;28;22387;-72
2024/01/13 05:40:59;;;;;;;1.83;1.05;;;;;;;1.66;100.00;102293.75;5046279;28;20936;-73
2024/01/13 05:43:45;;;;;;;3.58;1.20;;;;;;;1.69;100.00;102293.78;5045074;28;20135;-72
2024/01/13 05:46:30;;;;;;;1.27;1.00;;;;;;;1.71;100.00;102292.09;5047422;28;21904;-73
2024/01/13 05:49:17;;;;;;;2.03;1.20;;;;;;;1.73;100.00;102293.00;5047750;28;20051;-72
2024/01/13 05:52:03;;;;;;;2.25;0.82;;;;;;;1.73;100.00;102279.94;5044589;28;20052;-72
2024/01/13 05:54:48;;;;;;;1.38;0.85;;;;;;;1.74;100.00;102281.69;5037790;28;20065;-73
2024/01/13 05:57:34;;;;;;;2.80;0.90;;;;;;;1.76;100.00;102279.09;5036693;28;20055;-73
2024/01/13 06:00:20;;;;;;;0.88;0.88;;;;;;;1.73;100.00;102269.50;5035377;28;20142;-73
2024/01/13 06:03:05;;;;;;;1.73;0.82;;;;;;;1.71;100.00;102265.97;5049571;28;20037;-73
2024/01/13 06:05:52;;;;;;;1.75;0.57;;;;;;;1.71;100.00;102265.09;5047600;28;20052;-72
2024/01/13 06:08:37;;;;;;;2.10;0.75;;;;;;;1.71;100.00;102259.88;5048736;28;20048;-73
2024/01/13 06:11:23;;;;;;;1.20;0.70;;;;;;;1.71;100.00;102255.53;5048931;28;20131;-73
2024/01/13 06:14:09;;;;;;;0.80;0.70;;;;;;;1.72;100.00;102253.78;5032239;28;20045;-72
2024/01/13 06:16:54;;;;;;;3.03;0.80;;;;;;;1.71;100.00;102249.44;5027099;28;20045;-73
2024/01/13 06:19:41;;;;;;;3.25;0.70;;;;;;;1.70;100.00;102258.13;5029981;28;20048;-73
2024/01/13 06:22:27;;;;;;;2.90;0.73;;;;;;;1.70;100.00;102245.06;5033571;28;20069;-72
2024/01/13 06:25:13;;;;;;;4.60;0.90;;;;;;;1.69;100.00;102252.00;5040042;28;20056;-73
2024/01/13 06:27:58;;;;;;;0.75;0.70;;;;;;;1.71;100.00;102250.31;5034548;28;20120;-72
2024/01/13 06:30:44;;;;;;;4.47;3.20;;;;;;;1.73;100.00;102238.16;5031469;28;20044;-73
2024/01/13 06:33:30;;;;;;;1.98;1.77;;;;;;;1.75;100.00;102227.72;5029779;28;20055;-72
2024/01/13 06:36:16;;;;;;;3.75;1.50;;;;;;;1.75;100.00;102223.38;5031980;28;20105;-73
2024/01/13 06:39:01;;;;;;;3.22;1.95;;;;;;;1.76;100.00;102225.13;5031137;28;20133;-73
2024/01/13 06:41:47;;;;;;;0.82;0.82;;;;;;;1.79;100.00;102208.63;5030316;28;20037;-72
2024/01/13 06:44:33;;;;;;;2.55;1.77;;;;;;;1.82;100.00;102213.00;5044590;28;20084;-73
2024/01/13 06:47:20;;;;;;;4.90;2.60;;;;;;;1.80;100.00;102217.34;5030827;28;20048;-73
2024/01/13 06:50:06;;;;;;;1.80;1.20;;;;;;;1.82;100.00;102228.69;5033705;28;20958;-72
2024/01/13 06:52:51;;;;;;;5.90;1.45;;;;;;;1.82;100.00;102228.69;5030449;28;20076;-73
2024/01/13 06:55:37;;;;;;;4.07;1.40;;;;;;;1.83;100.00;102217.38;5015211;28;20045;-73
2024/01/13 06:58:23;;;;;;;4.03;1.63;;;;;;;1.84;100.00;102213.91;5029678;28;20252;-73
2024/01/13 07:01:13;;;;;;;6.93;2.22;;;;;;;1.85;100.00;102210.44;5029386;28;20051;-72
2024/01/13 07:03:59;;;;;;;12.38;3.90;;;;;;;1.85;100.00;102200.88;5031808;28;20050;-72
2024/01/13 07:06:44;;;;;;;12.77;4.60;;;;;;;1.85;100.00;102200.88;5029105;28;20041;-73
2024/01/13 07:09:30;;;;;;;12.23;5.03;;;;;;;1.85;100.00;102205.22;5030785;28;20049;-73
2024/01/13 07:12:16;;;;;;;13.07;5.40;;;;;;;1.86;100.00;102183.47;5012169;28;20041;-73
2024/01/13 07:15:03;;;;;;;15.30;5.72;;;;;;;1.86;100.00;102183.47;5009272;28;20064;-73
2024/01/13 07:17:49;;;;;;;13.93;5.45;;;;;;;1.88;100.00;102186.97;5010112;28;20044;-73
2024/01/13 07:20:34;;;;;;;17.45;6.85;;;;;;;1.87;100.00;102183.47;5008360;28;20061;-73
2024/01/13 07:23:20;;;;;;;23.75;8.05;;;;;;;1.86;100.00;102191.31;5006355;28;20058;-73
2024/01/13 07:26:06;;;;;;;22.27;8.73;;;;;;;1.85;100.00;102182.59;5010369;28;20049;-73
2024/01/13 07:28:52;;;;;;;29.40;10.52;;;;;;;1.86;100.00;102191.31;5009963;28;20044;-74
2024/01/13 07:31:38;;;;;;;35.53;12.90;;;;;;;1.88;100.00;102185.25;5009185;28;20045;-73
2024/01/13 07:34:23;;;;;;;33.00;12.88;;;;;;;1.92;100.00;102193.09;5010115;28;20045;-73
2024/01/13 07:37:09;;;;;;;35.50;12.88;;;;;;;1.95;100.00;102180.97;5009288;28;20489;-73
2024/01/13 07:39:55;;;;;;;33.08;12.95;;;;;;;1.97;100.00;102184.47;5010162;28;20209;-73
2024/01/13 07:42:41;;;;;;;37.03;13.80;;;;;;;1.98;100.00;102181.00;5011070;28;20154;-73
2024/01/13 07:45:27;;;;;;;36.15;13.95;;;;;;;1.99;100.00;102182.75;5012950;28;20603;-73
2024/01/13 07:48:13;;;;;;;37.13;14.50;;;;;;;1.98;100.00;102186.25;4996911;28;20480;-73
2024/01/13 07:50:58;;;;;;;38.38;14.45;;;;;;;1.99;100.00;102188.00;5009898;28;20045;-73
2024/01/13 07:53:44;;;;;;;44.85;16.92;;;;;;;1.97;100.00;102184.47;5006814;28;20049;-73
2024/01/13 07:56:30;;;;;;;40.45;15.38;;;;;;;1.97;100.00;102189.69;5007504;28;20041;-73
2024/01/13 07:59:17;;;;;;;45.97;15.35;;;;;;;1.97;100.00;102189.69;5008908;28;20843;-73
2024/01/13 08:02:03;;;;;;;44.78;14.07;;;;;;;1.97;100.00;102184.47;5004498;28;20060;-73
2024/01/13 08:04:49;;;;;;;46.70;14.50;;;;;;;1.96;100.00;102184.47;5005352;28;20133;-73
2024/01/13 08:07:35;;;;;;;43.05;14.98;;;;;;;1.95;100.00;102188.81;5009553;28;20051;-73
2024/01/13 08:10:20;;;;;;;45.75;15.07;;;;;;;1.93;100.00;102182.69;5005637;28;20050;-73
2024/01/13 08:13:06;;;;;;;47.35;15.32;;;;;;;1.93;100.00;102168.72;5034660;28;20071;-73
2024/01/13 08:15:52;;;;;;;45.70;15.90;;;;;;;1.91;100.00;102160.91;5045121;28;20047;-73
2024/01/13 08:18:37;;;;;;;46.95;16.50;;;;;;;1.90;100.00;102172.19;5045456;28;20041;-73
2024/01/13 08:21:23;;;;;;;48.50;16.30;;;;;;;1.89;100.00;102162.59;5035484;28;20118;-73
2024/01/13 08:24:09;;;;;;;62.28;20.23;;;;;;;1.89;100.00;102155.66;5045323;28;20074;-73
2024/01/13 08:26:55;;;;;;;56.28;20.52;;;;;;;1.90;100.00;102161.72;5045014;28;20105;-73
2024/01/13 08:29:40;;;;;;;63.85;21.67;;;;;;;1.89;100.00;102155.66;5034114;28;20067;-73
2024/01/13 08:32:26;;;;;;;55.85;21.23;;;;;;;1.89;100.00;102146.94;5045681;28;20127;-73
2024/01/13 08:35:12;;;;;;;58.58;22.05;;;;;;;1.89;100.00;102144.31;5035771;28;20098;-73
2024/01/13 08:37:58;;;;;;;65.65;23.52;;;;;;;1.88;100.00;102139.94;5035119;28;20456;-73
2024/01/13 08:40:46;;;;;;;63.90;22.75;;;;;;;1.89;100.00;102141.69;5033861;28;20032;-73
2024/01/13 08:43:32;;;;;;;65.57;24.42;;;;;;;1.88;100.00;102129.50;5048503;28;20055;-73
2024/01/13 08:46:18;;;;;;;63.22;23.35;;;;;;;1.87;100.00;102130.38;5047423;28;20037;-73
2024/01/13 08:49:04;;;;;;;58.35;22.15;;;;;;;1.90;100.00;102130.38;5038111;28;20037;-73
2024/01/13 08:51:50;;;;;;;62.55;24.45;;;;;;;1.90;100.00;102125.16;5045638;28;20046;-73
2024/01/13 08:54:36;;;;;;;68.72;25.85;;;;;;;1.93;100.00;102124.31;5034697;28;21313;-72
2024/01/13 08:57:22;;;;;;;63.88;24.25;;;;;;;1.95;100.00;102120.03;5035891;28;20064;-73
2024/01/13 09:00:08;;;;;;;62.53;24.95;;;;;;;1.94;100.00;102102.56;5054941;28;20041;-73
2024/01/13 09:02:54;;;;;;;65.28;25.42;;;;;;;1.94;100.00;102111.28;5058847;28;20098;-72
2024/01/13 09:05:40;;;;;;;63.30;23.60;;;;;;;1.94;100.00;102111.28;5043366;28;20044;-71
2024/01/13 09:08:26;;;;;;;65.07;24.02;;;;;;;1.96;100.00;102125.25;5043831;28;20204;-73
2024/01/13 09:11:11;;;;;;;62.33;24.58;;;;;;;1.96;100.00;102120.00;5057452;28;20060;-72
2024/01/13 09:13:57;;;;;;;61.72;23.88;;;;;;;1.96;100.00;102108.72;5053524;28;20051;-72
2024/01/13 09:16:46;;;;;;;60.42;23.38;;;;;;;1.97;100.00;102115.69;5053392;28;20048;-73
2024/01/13 09:19:36;;;;;;;58.80;23.40;;;;;;;1.96;100.00;102106.94;5053375;28;20033;-72
2024/01/13 09:22:33;;;;;;;54.72;22.10;;;;;;;1.96;100.00;102099.13;5039151;28;20149;-72
2024/01/13 09:25:20;;;;;;;54.33;21.17;;;;;;;1.97;100.00;102100.88;5052559;28;20051;-73
2024/01/13 09:28:09;;;;;;;53.40;20.45;;;;;;;1.99;100.00;102098.28;5053563;28;20487;-73
2024/01/13 09:30:55;;;;;;;50.72;18.65;;;;;;;2.00;100.00;102094.78;5050409;28;20465;-73
2024/01/13 09:33:41;;;;;;;49.92;20.00;;;;;;;1.99;100.00;102090.44;5059623;28;20063;-73
2024/01/13 09:36:27;;;;;;;48.85;19.38;;;;;;;2.01;100.00;102080.88;5059965;28;20048;-74
2024/01/13 09:39:14;;;;;;;56.45;20.23;;;;;;;2.01;100.00;102076.53;5062179;28;20519;-74
2024/01/13 09:42:01;;;;;;;51.85;19.75;;;;;;;2.04;100.00;102070.47;5059756;28;20048;-72
2024/01/13 09:44:46;;;;;;;53.22;20.52;;;;;;;2.06;100.00;102068.75;5047078;28;20040;-73
2024/01/13 09:47:32;;;;;;;49.42;20.35;;;;;;;2.07;100.00;102062.66;5050859;28;20430;-72
2024/01/13 09:50:18;;;;;;;49.53;19.13;;;;;;;2.12;100.00;102067.94;5046573;28;20327;-73
2024/01/13 09:53:07;;;;;;;50.15;19.05;;;;;;;2.13;100.00;102065.31;5042609;28;20083;-72
2024/01/13 09:55:57;;;;;;;43.45;18.52;;;;;;;2.17;100.00;102063.59;5048295;28;20037;-73
2024/01/13 09:58:43;;;;;;;42.17;16.80;;;;;;;2.18;100.00;102062.75;5050354;28;20033;-73
2024/01/13 10:01:30;;;;;;;40.33;16.83;;;;;;;2.18;100.00;102065.34;5048941;28;20498;-72
2024/01/13 10:04:17;;;;;;;40.33;16.27;;;;;;;2.20;100.00;102071.50;5060544;28;20033;-73
2024/01/13 10:07:04;;;;;;;45.08;17.30;;;;;;;2.22;100.00;102068.91;5063499;28;20041;-72
2024/01/13 10:10:08;;;;;;;39.50;15.68;;;;;;;2.24;100.00;102070.66;4591890;27;15056760;-74
2024/01/13 10:12:55;;;;;;;37.25;15.70;;;;;;;2.26;100.00;102075.91;5107879;27;20074;-72
2024/01/13 10:15:40;;;;;;;35.53;14.63;;;;;;;2.28;100.00;102080.28;5125661;27;20544;-72
2024/01/13 10:18:26;;;;;;;38.58;15.32;;;;;;;2.29;100.00;102076.78;5125018;27;20485;-72
2024/01/13 10:21:12;;;;;;;36.00;14.25;;;;;;;2.31;100.00;102076.81;5126560;27;20035;-73
2024/01/13 10:24:01;;;;;;;32.95;13.63;;;;;;;2.33;100.00;102071.63;5091424;27;20032;-73
2024/01/13 10:26:47;;;;;;;31.27;13.45;;;;;;;2.35;100.00;102077.72;5105089;27;20402;-73
2024/01/13 10:29:35;;;;;;;29.38;12.48;;;;;;;2.35;100.00;102065.53;5119688;27;20780;-73
2024/01/13 10:32:21;;;;;;;31.38;13.45;;;;;;;2.35;100.00;102067.25;5106108;27;20041;-73
2024/01/13 10:35:07;;;;;;;35.22;12.75;;;;;;;2.35;100.00;102046.34;5105272;27;20050;-74
2024/01/13 10:37:59;;;;;;;28.35;13.15;;;;;;;2.37;100.00;102048.13;5117430;27;20042;-74
2024/01/13 10:40:45;;;;;;;30.40;12.60;;;;;;;2.39;100.00;102049.00;5104315;27;20058;-73
2024/01/13 10:43:31;;;;;;;29.98;11.98;;;;;;;2.42;100.00;102049.03;5092755;27;20034;-72
2024/01/13 10:46:25;;;;;;;28.88;11.43;;;;;;;2.45;100.00;102035.09;5102942;27;20039;-71
2024/01/13 10:49:39;;;;;;;24.40;11.05;;;;;;;2.49;100.00;102025.53;5105940;27;20040;-73
2024/01/13 10:52:43;;;;;;;24.08;10.48;;;;;;;2.54;100.00;102029.94;5103599;27;20042;-72
2024/01/13 10:55:30;;;;;;;22.80;10.38;;;;;;;2.58;100.00;102026.47;5102909;27;20444;-73
2024/01/13 10:58:16;;;;;;;25.20;9.35;;;;;;;2.63;100.00;102018.69;5068115;28;20032;-73
2024/01/13 11:01:02;;;;;;;25.05;9.70;;;;;;;2.68;100.00;102016.09;5084728;28;20042;-72
2024/01/13 11:03:50;;;;;;;24.45;9.57;;;;;;;2.70;100.00;102020.47;5083980;28;20036;-73
2024/01/13 11:06:36;;;;;;;24.00;9.57;;;;;;;2.74;100.00;102010.91;5073486;28;20083;-72
2024/01/13 11:09:23;;;;;;;22.88;8.32;;;;;;;2.76;100.00;102009.16;5072853;28;20047;-72
2024/01/13 11:12:15;;;;;;;20.58;8.82;;;;;;;2.78;100.00;102002.19;5071535;28;20044;-72
2024/01/13 11:15:30;;;;;;;15.65;6.90;;;;;;;2.83;100.00;102004.84;5062502;28;20035;-73
2024/01/13 11:18:19;;;;;;;17.60;6.63;;;;;;;2.88;100.00;101997.03;5085220;28;20048;-72
2024/01/13 11:21:10;;;;;;;13.32;5.72;;;;;;;2.91;100.00;101990.06;5060222;28;20043;-73
2024/01/13 11:23:58;;;;;;;13.98;6.28;;;;;;;2.96;100.00;101984.84;5061751;28;20039;-72
2024/01/13 11:26:48;;;;;;;12.55;5.28;;;;;;;3.01;100.00;101972.66;5071516;28;20119;-72
2024/01/13 11:29:42;;;;;;;10.90;4.78;;;;;;;3.06;100.00;101976.16;5070397;28;20074;-73
2024/01/13 11:32:30;;;;;;;12.63;4.65;;;;;;;3.09;100.00;101970.94;5069494;28;20043;-72
2024/01/13 11:35:16;;;;;;;11.98;4.57;;;;;;;3.12;100.00;101952.63;5071732;28;20032;-72
2024/01/13 11:38:08;;;;;;;11.43;4.75;;;;;;;3.16;100.00;101950.03;5043430;28;20048;-72
2024/01/13 11:40:56;;;;;;;11.43;5.28;;;;;;;3.18;100.00;101951.81;5062401;28;20457;-72
2024/01/13 11:43:44;;;;;;;9.65;4.30;;;;;;;3.20;100.00;101941.31;5075120;28;20096;-73
2024/01/13 11:46:33;;;;;;;9.25;4.45;;;;;;;3.22;100.00;101934.34;5071355;28;20452;-72
2024/01/13 11:49:36;;;;;;;7.20;3.28;;;;;;;3.24;100.00;101940.47;5058208;28;20089;-72
2024/01/13 11:52:30;;;;;;;7.15;3.38;;;;;;;3.27;100.00;101937.84;5049570;28;20102;-72
2024/01/13 11:55:16;;;;;;;7.95;2.97;;;;;;;3.27;100.00;101932.59;5067469;28;20049;-72
2024/01/13 11:58:02;;;;;;;11.75;3.30;;;;;;;3.29;100.00;101935.22;5067780;28;20123;-73
2024/01/13 12:00:48;;;;;;;5.30;2.92;;;;;;;3.30;100.00;101921.28;5068027;28;20498;-73
2024/01/13 12:03:34;;;;;;;6.68;2.75;;;;;;;3.28;100.00;101917.78;5069637;28;20025;-71
2024/01/13 12:06:20;;;;;;;7.30;2.90;;;;;;;3.28;100.00;101913.44;5057231;28;20048;-71
2024/01/13 12:09:11;;;;;;;7.97;3.00;;;;;;;3.26;100.00;101909.91;5072708;28;20075;-72
2024/01/13 12:12:02;;;;;;;8.45;2.97;;;;;;;3.26;100.00;101904.69;5066974;28;20048;-73
2024/01/13 12:14:48;;;;;;;6.85;2.75;;;;;;;3.27;100.00;101906.44;5039213;28;20043;-72
2024/01/13 12:17:34;;;;;;;8.77;3.30;;;;;;;3.30;100.00;101901.22;5045826;28;20036;-72
2024/01/13 12:20:19;;;;;;;7.97;2.80;;;;;;;3.30;100.00;101889.84;5039045;28;20028;-73
2024/01/13 12:23:05;;;;;;;6.20;2.08;;;;;;;3.33;100.00;101895.97;5046148;28;20055;-72
2024/01/13 12:25:52;;;;;;;7.93;2.45;;;;;;;3.36;100.00;101893.38;5067271;28;20479;-72
2024/01/13 12:28:41;;;;;;;4.78;2.55;;;;;;;3.38;100.00;101899.47;5070346;28;20104;-72
2024/01/13 12:31:27;;;;;;;3.67;2.30;;;;;;;3.38;100.00;101889.00;5066987;28;20036;-72
2024/01/13 12:34:14;;;;;;;5.07;2.15;;;;;;;3.40;100.00;101879.41;5070183;28;20051;-71
2024/01/13 12:37:03;;;;;;;7.05;2.42;;;;;;;3.43;100.00;101875.91;5055654;28;20025;-72
2024/01/13 12:39:49;;;;;;;2.83;1.83;;;;;;;3.46;100.00;101881.16;5046902;28;20048;-72
2024/01/13 12:42:39;;;;;;;6.78;2.25;;;;;;;3.49;100.00;101875.06;5045423;28;20181;-71
2024/01/13 12:45:28;;;;;;;6.32;2.40;;;;;;;3.52;100.00;101867.19;5052255;28;20483;-71
2024/01/13 12:48:16;;;;;;;4.15;2.03;;;;;;;3.53;100.00;101858.47;5070673;28;20055;-72